createdAt,value
2022-09-12T00:01:15.164Z,99899.63
2022-09-12T00:03:42.199Z,99901.31
2022-09-12T00:06:29.331Z,99896.38
2022-09-12T00:08:57.702Z,99891.97
2022-09-12T00:11:25.203Z,99897.19
2022-09-12T00:13:52.389Z,99902.16
2022-09-12T00:16:20.465Z,99895.13
2022-09-12T00:18:47.986Z,99900.41
2022-09-12T00:21:15.963Z,99897.56
2022-09-12T00:23:42.915Z,99895.41
2022-09-12T00:26:09.947Z,99902.63
2022-09-12T00:28:37.667Z,99900.56
2022-09-12T00:31:06.816Z,99905.16
2022-09-12T00:33:34.184Z,99899.25
2022-09-12T00:36:04.481Z,99893.56
2022-09-12T00:38:31.509Z,99900.38
2022-09-12T00:40:58.320Z,99892.03
2022-09-12T00:43:31.179Z,99898.97
2022-09-12T00:45:59.160Z,99893.00
2022-09-12T00:48:32.528Z,99884.88
2022-09-12T00:50:59.843Z,99894.13
2022-09-12T00:53:26.723Z,99896.34
2022-09-12T00:55:55.876Z,99897.25
2022-09-12T00:58:24.645Z,99890.25
2022-09-12T01:00:51.760Z,99890.63
2022-09-12T01:03:19.765Z,99892.69
2022-09-12T01:06:09.641Z,99892.78
2022-09-12T01:08:41.109Z,99894.16
2022-09-12T01:11:09.868Z,99887.38
2022-09-12T01:13:36.957Z,99895.38
2022-09-12T01:16:05.915Z,99896.22
2022-09-12T01:18:42.490Z,99890.16
2022-09-12T01:21:13.250Z,99889.44
2022-09-12T01:23:45.850Z,99890.66
2022-09-12T01:26:28.022Z,99891.75
2022-09-12T01:29:00.982Z,99894.09
2022-09-12T01:31:33.940Z,99893.78
2022-09-12T01:34:19.532Z,99896.69
2022-09-12T01:36:51.489Z,99892.09
2022-09-12T01:39:27.164Z,99887.25
2022-09-12T01:41:54.835Z,99881.19
2022-09-12T01:44:34.020Z,99888.44
2022-09-12T01:47:19.632Z,99876.50
2022-09-12T01:49:49.520Z,99883.97
2022-09-12T01:52:20.395Z,99884.63
2022-09-12T01:54:51.011Z,99888.81
2022-09-12T01:57:25.887Z,99883.91
2022-09-12T01:59:55.007Z,99885.00
2022-09-12T02:02:42.399Z,99879.06
2022-09-12T02:05:17.946Z,99895.97
2022-09-12T02:07:52.379Z,99894.63
2022-09-12T02:10:32.231Z,99893.97
2022-09-12T02:13:03.822Z,99890.25
2022-09-12T02:15:34.465Z,99886.63
2022-09-12T02:18:02.555Z,99886.31
2022-09-12T02:20:47.433Z,99881.53
2022-09-12T02:23:18.905Z,99880.06
2022-09-12T02:25:47.498Z,99871.94
2022-09-12T02:28:17.503Z,99875.84
2022-09-12T02:31:07.629Z,99883.22
2022-09-12T02:33:44.276Z,99875.94
2022-09-12T02:36:15.658Z,99873.09
2022-09-12T02:38:47.265Z,99875.44
2022-09-12T02:41:16.027Z,99873.94
2022-09-12T02:43:42.941Z,99869.94
2022-09-12T02:46:18.916Z,99869.25
2022-09-12T02:48:45.782Z,99865.06
2022-09-12T02:51:13.100Z,99865.50
2022-09-12T02:53:40.797Z,99871.44
2022-09-12T02:56:09.747Z,99861.44
2022-09-12T02:58:36.765Z,99867.31
2022-09-12T03:01:21.364Z,99859.31
2022-09-12T03:04:00.443Z,99867.47
2022-09-12T03:06:27.243Z,99852.31
2022-09-12T03:09:00.695Z,99860.28
2022-09-12T03:11:51.073Z,99859.41
2022-09-12T03:14:24.240Z,99868.50
2022-09-12T03:16:51.478Z,99864.66
2022-09-12T03:19:24.510Z,99872.00
2022-09-12T03:21:51.390Z,99868.00
2022-09-12T03:24:21.159Z,99863.94
2022-09-12T03:26:50.840Z,99873.09
2022-09-12T03:29:18.740Z,99866.84
2022-09-12T03:31:52.709Z,99856.41
2022-09-12T03:34:20.698Z,99854.69
2022-09-12T03:36:47.910Z,99863.75
2022-09-12T03:39:14.884Z,99856.47
2022-09-12T03:41:41.898Z,99860.72
2022-09-12T03:44:08.717Z,99858.66
2022-09-12T03:46:36.030Z,99863.03
2022-09-12T03:49:02.908Z,99868.16
2022-09-12T03:51:29.757Z,99870.84
2022-09-12T03:53:56.712Z,99872.66
2022-09-12T03:56:23.637Z,99872.78
2022-09-12T03:58:50.533Z,99874.13
2022-09-12T04:01:18.516Z,99886.84
2022-09-12T04:03:47.187Z,99890.25
2022-09-12T04:06:15.863Z,99884.06
2022-09-12T04:08:43.455Z,99883.63
2022-09-12T04:11:11.788Z,99884.38
2022-09-12T04:13:39.727Z,99882.50
2022-09-12T04:16:06.937Z,99888.38
2022-09-12T04:18:33.801Z,99884.81
2022-09-12T04:21:04.380Z,99884.31
2022-09-12T04:23:31.265Z,99884.31
2022-09-12T04:25:59.062Z,99884.69
2022-09-12T04:28:26.784Z,99893.66
2022-09-12T04:30:53.702Z,99897.56
2022-09-12T04:33:20.778Z,99893.16
2022-09-12T04:35:48.241Z,99902.09
2022-09-12T04:38:15.085Z,99898.72
2022-09-12T04:40:41.922Z,99899.41
2022-09-12T04:43:14.267Z,99906.84
2022-09-12T04:45:41.569Z,99901.97
2022-09-12T04:48:08.437Z,99905.16
2022-09-12T04:50:35.296Z,99903.84
2022-09-12T04:53:02.108Z,99908.03
2022-09-12T04:55:29.175Z,99909.44
2022-09-12T04:57:56.161Z,99910.81
2022-09-12T05:00:22.976Z,99914.16
2022-09-12T05:02:49.947Z,99914.84
2022-09-12T05:05:17.757Z,99912.78
2022-09-12T05:07:44.710Z,99922.56
2022-09-12T05:10:12.294Z,99922.38
2022-09-12T05:12:39.435Z,99927.25
2022-09-12T05:15:06.724Z,99933.53
2022-09-12T05:17:33.593Z,99942.13
2022-09-12T05:20:00.922Z,99943.94
2022-09-12T05:22:27.905Z,99938.97
2022-09-12T05:24:54.719Z,99937.44
2022-09-12T05:27:21.798Z,99934.94
2022-09-12T05:29:48.673Z,99940.47
2022-09-12T05:32:15.576Z,99934.69
2022-09-12T05:34:42.432Z,99943.88
2022-09-12T05:37:09.261Z,99943.25
2022-09-12T05:39:36.154Z,99941.22
2022-09-12T05:42:03.674Z,99942.41
2022-09-12T05:44:30.644Z,99951.31
2022-09-12T05:46:57.804Z,99939.66
2022-09-12T05:49:24.787Z,99944.16
2022-09-12T05:51:51.907Z,99941.16
2022-09-12T05:54:20.680Z,99941.03
2022-09-12T05:56:48.569Z,99939.25
2022-09-12T05:59:18.953Z,99938.47
2022-09-12T06:01:46.440Z,99937.53
2022-09-12T06:04:13.581Z,99940.31
2022-09-12T06:06:42.012Z,99932.91
2022-09-12T06:09:09.396Z,99940.53
2022-09-12T06:11:37.523Z,99939.97
2022-09-12T06:14:04.888Z,99937.13
2022-09-12T06:16:33.103Z,99932.78
2022-09-12T06:19:01.164Z,99945.69
2022-09-12T06:21:29.012Z,99933.47
2022-09-12T06:23:55.911Z,99943.09
2022-09-12T06:26:24.322Z,99940.66
2022-09-12T06:28:52.159Z,99945.28
2022-09-12T06:31:20.769Z,99939.91
2022-09-12T06:33:49.455Z,99936.63
2022-09-12T06:36:21.416Z,99949.88
2022-09-12T06:38:51.649Z,99950.09
2022-09-12T06:41:18.502Z,99948.69
2022-09-12T06:43:45.405Z,99954.44
2022-09-12T06:46:13.403Z,99959.28
2022-09-12T06:48:42.076Z,99950.91
2022-09-12T06:51:20.267Z,99953.25
2022-09-12T06:53:48.163Z,99950.38
2022-09-12T06:56:16.494Z,99936.41
2022-09-12T06:58:44.026Z,99945.41
2022-09-12T07:01:18.309Z,99935.63
2022-09-12T07:03:49.806Z,99946.56
2022-09-12T07:06:18.412Z,99944.06
2022-09-12T07:08:45.806Z,99947.44
2022-09-12T07:11:17.258Z,99948.53
2022-09-12T07:13:45.297Z,99948.34
2022-09-12T07:16:17.321Z,99947.94
2022-09-12T07:18:50.067Z,99950.06
2022-09-12T07:21:16.983Z,99959.28
2022-09-12T07:23:45.048Z,99949.88
2022-09-12T07:26:12.891Z,99955.78
2022-09-12T07:28:40.040Z,99948.66
2022-09-12T07:31:07.370Z,99954.31
2022-09-12T07:33:34.673Z,99945.91
2022-09-12T07:36:03.828Z,99955.78
2022-09-12T07:38:31.283Z,99948.50
2022-09-12T07:40:59.075Z,99954.34
2022-09-12T07:43:26.051Z,99955.00
2022-09-12T07:45:56.861Z,99961.75
2022-09-12T07:48:24.003Z,99955.69
2022-09-12T07:51:04.846Z,99952.72
2022-09-12T07:53:33.461Z,99960.25
2022-09-12T07:56:00.653Z,99972.84
2022-09-12T07:58:27.557Z,99968.66
2022-09-12T08:00:54.419Z,99969.69
2022-09-12T08:03:21.273Z,99965.09
2022-09-12T08:05:48.232Z,99960.69
2022-09-12T08:08:15.331Z,99960.44
2022-09-12T08:10:42.318Z,99962.31
2022-09-12T08:13:10.786Z,99960.00
2022-09-12T08:15:37.911Z,99958.94
2022-09-12T08:18:04.847Z,99963.13
2022-09-12T08:20:31.955Z,99957.81
2022-09-12T08:22:58.847Z,99955.53
2022-09-12T08:25:26.292Z,99959.25
2022-09-12T08:27:53.221Z,99974.56
2022-09-12T08:30:20.095Z,99974.19
2022-09-12T08:32:47.519Z,99967.91
2022-09-12T08:35:15.560Z,99965.91
2022-09-12T08:37:42.481Z,99964.03
2022-09-12T08:40:15.075Z,99965.94
2022-09-12T08:43:02.334Z,99961.66
2022-09-12T08:45:33.405Z,99959.59
2022-09-12T08:48:03.384Z,99958.25
2022-09-12T08:50:30.400Z,99952.72
2022-09-12T08:53:06.711Z,99956.53
2022-09-12T08:55:49.456Z,99947.06
2022-09-12T08:58:21.156Z,99947.63
2022-09-12T09:00:59.631Z,99946.69
2022-09-12T09:03:35.519Z,99947.19
2022-09-12T09:06:07.433Z,99938.06
2022-09-12T09:08:39.009Z,99950.03
2022-09-12T09:11:24.691Z,99955.84
2022-09-12T09:14:22.458Z,99954.00
2022-09-12T09:16:50.892Z,99958.31
2022-09-12T09:19:24.422Z,99957.69
2022-09-12T09:21:59.991Z,99956.06
2022-09-12T09:24:47.215Z,99942.78
2022-09-12T09:27:40.575Z,99946.69
2022-09-12T09:30:19.043Z,99939.31
2022-09-12T09:32:54.736Z,99930.84
2022-09-12T09:35:40.470Z,99936.19
2022-09-12T09:38:13.304Z,99940.84
2022-09-12T09:40:51.175Z,99937.13
2022-09-12T09:43:25.737Z,99940.75
2022-09-12T09:45:52.993Z,99938.06
2022-09-12T09:48:22.872Z,99941.38
2022-09-12T09:50:50.103Z,99938.41
2022-09-12T09:53:27.421Z,99930.63
2022-09-12T09:55:55.852Z,99930.97
2022-09-12T09:58:35.585Z,99932.16
2022-09-12T10:01:06.545Z,99931.09
2022-09-12T10:03:34.728Z,99908.03
2022-09-12T10:06:21.977Z,99918.59
2022-09-12T10:08:49.968Z,99913.56
2022-09-12T10:11:16.837Z,99924.16
2022-09-12T10:13:57.915Z,99924.94
2022-09-12T10:16:28.022Z,99912.28
2022-09-12T10:18:56.680Z,99922.06
2022-09-12T10:21:34.317Z,99915.34
2022-09-12T10:24:07.576Z,99918.53
2022-09-12T10:26:39.651Z,99914.09
2022-09-12T10:29:20.066Z,99919.34
2022-09-12T10:31:54.414Z,99922.09
2022-09-12T10:34:21.415Z,99922.69
2022-09-12T10:36:48.340Z,99921.03
2022-09-12T10:39:18.764Z,99918.38
2022-09-12T10:41:46.149Z,99916.47
2022-09-12T10:44:17.519Z,99906.94
2022-09-12T10:46:44.634Z,99915.78
2022-09-12T10:49:17.543Z,99915.97
2022-09-12T10:51:44.448Z,99919.09
2022-09-12T10:54:13.384Z,99909.84
2022-09-12T10:56:48.233Z,99913.28
2022-09-12T10:59:21.276Z,99914.97
2022-09-12T11:01:57.387Z,99902.75
2022-09-12T11:04:44.481Z,99909.22
2022-09-12T11:07:22.097Z,99900.75
2022-09-12T11:09:54.954Z,99898.63
2022-09-12T11:12:31.379Z,99891.09
2022-09-12T11:15:01.041Z,99893.97
2022-09-12T11:17:52.423Z,99882.13
2022-09-12T11:20:42.550Z,99880.53
2022-09-12T11:23:23.768Z,99878.75
2022-09-12T11:25:50.578Z,99880.44
2022-09-12T11:28:36.130Z,99868.31
2022-09-12T11:31:03.099Z,99877.13
2022-09-12T11:34:02.398Z,99880.84
2022-09-12T11:36:47.781Z,99867.16
2022-09-12T11:39:14.821Z,99868.09
2022-09-12T11:41:43.434Z,99869.47
2022-09-12T11:44:17.646Z,99869.16
2022-09-12T11:46:48.727Z,99867.72
2022-09-12T11:49:37.167Z,99866.31
2022-09-12T11:52:18.863Z,99859.13
2022-09-12T11:55:00.735Z,99856.78
2022-09-12T11:57:30.306Z,99867.47
2022-09-12T12:00:06.254Z,99856.31
2022-09-12T12:02:53.349Z,99850.63
2022-09-12T12:05:22.493Z,99863.63
2022-09-12T18:45:18.743Z,99839.53
2022-09-12T18:47:46.027Z,99837.66
2022-09-12T18:50:13.374Z,99842.31
2022-09-12T18:52:40.543Z,99843.19
2022-09-12T18:55:07.900Z,99848.88
2022-09-12T18:57:35.711Z,99837.78
2022-09-12T19:00:06.468Z,99849.53
2022-09-12T19:02:36.538Z,99846.19
2022-09-12T19:05:03.829Z,99847.25
2022-09-12T19:07:31.009Z,99846.22
2022-09-12T19:09:59.520Z,99847.25
2022-09-12T19:12:26.782Z,99844.53
2022-09-12T19:14:54.241Z,99846.19
2022-09-12T19:17:21.918Z,99839.50
2022-09-12T19:19:49.139Z,99840.34
